sensor_id;sensor_type;location;lat;lon;timestamp;P1;durP1;ratioP1;P2;durP2;ratioP2
19617;SDS011;9956;51.006;13.670;2023-10-09T00:05:18;6.78;;;3.03;;
19617;SDS011;9956;51.006;13.670;2023-10-09T00:10:37;4.18;;;2.97;;
19617;SDS011;9956;51.006;13.670;2023-10-09T00:15:46;7.45;;;3.10;;
19617;SDS011;9956;51.006;13.670;2023-10-09T00:20:53;4.00;;;3.47;;
19617;SDS011;9956;51.006;13.670;2023-10-09T00:25:55;4.47;;;3.30;;
19617;SDS011;9956;51.006;13.670;2023-10-09T00:31:23;5.43;;;3.67;;
19617;SDS011;9956;51.006;13.670;2023-10-09T00:36:46;6.10;;;3.67;;
19617;SDS011;9956;51.006;13.670;2023-10-09T00:41:54;5.05;;;3.17;;
19617;SDS011;9956;51.006;13.670;2023-10-09T00:46:54;6.45;;;3.45;;
19617;SDS011;9956;51.006;13.670;2023-10-09T00:52:08;5.55;;;3.35;;
19617;SDS011;9956;51.006;13.670;2023-10-09T00:57:18;6.25;;;3.13;;
19617;SDS011;9956;51.006;13.670;2023-10-09T01:02:28;5.95;;;3.97;;
19617;SDS011;9956;51.006;13.670;2023-10-09T01:07:48;5.43;;;3.78;;
19617;SDS011;9956;51.006;13.670;2023-10-09T01:12:58;5.28;;;3.67;;
19617;SDS011;9956;51.006;13.670;2023-10-09T01:17:59;4.60;;;3.60;;
19617;SDS011;9956;51.006;13.670;2023-10-09T01:23:00;4.68;;;3.60;;
19617;SDS011;9956;51.006;13.670;2023-10-09T01:28:01;5.35;;;3.53;;
19617;SDS011;9956;51.006;13.670;2023-10-09T01:33:01;5.43;;;3.92;;
19617;SDS011;9956;51.006;13.670;2023-10-09T01:38:13;7.18;;;4.03;;
19617;SDS011;9956;51.006;13.670;2023-10-09T01:43:15;6.38;;;4.05;;
19617;SDS011;9956;51.006;13.670;2023-10-09T01:48:19;6.57;;;4.53;;
19617;SDS011;9956;51.006;13.670;2023-10-09T01:53:24;9.48;;;4.97;;
19617;SDS011;9956;51.006;13.670;2023-10-09T01:58:29;5.93;;;4.38;;
19617;SDS011;9956;51.006;13.670;2023-10-09T02:03:32;7.85;;;4.90;;
19617;SDS011;9956;51.006;13.670;2023-10-09T02:08:37;6.93;;;5.65;;
19617;SDS011;9956;51.006;13.670;2023-10-09T02:13:37;5.72;;;5.10;;
19617;SDS011;9956;51.006;13.670;2023-10-09T02:18:42;7.22;;;5.20;;
19617;SDS011;9956;51.006;13.670;2023-10-09T02:23:56;7.10;;;5.55;;
19617;SDS011;9956;51.006;13.670;2023-10-09T02:28:57;9.05;;;5.68;;
19617;SDS011;9956;51.006;13.670;2023-10-09T02:34:04;8.15;;;5.72;;
19617;SDS011;9956;51.006;13.670;2023-10-09T02:39:05;8.18;;;5.97;;
19617;SDS011;9956;51.006;13.670;2023-10-09T02:44:06;8.52;;;5.70;;
19617;SDS011;9956;51.006;13.670;2023-10-09T02:49:11;8.90;;;5.97;;
19617;SDS011;9956;51.006;13.670;2023-10-09T02:54:16;7.95;;;5.45;;
19617;SDS011;9956;51.006;13.670;2023-10-09T02:59:25;7.28;;;5.78;;
19617;SDS011;9956;51.006;13.670;2023-10-09T03:04:26;8.70;;;6.35;;
19617;SDS011;9956;51.006;13.670;2023-10-09T03:09:31;7.82;;;5.68;;
19617;SDS011;9956;51.006;13.670;2023-10-09T03:14:33;8.75;;;6.05;;
19617;SDS011;9956;51.006;13.670;2023-10-09T03:19:38;8.15;;;6.47;;
19617;SDS011;9956;51.006;13.670;2023-10-09T03:24:39;9.75;;;7.07;;
19617;SDS011;9956;51.006;13.670;2023-10-09T03:29:45;10.20;;;6.95;;
19617;SDS011;9956;51.006;13.670;2023-10-09T03:34:50;7.93;;;6.68;;
19617;SDS011;9956;51.006;13.670;2023-10-09T03:39:51;10.10;;;5.93;;
19617;SDS011;9956;51.006;13.670;2023-10-09T03:44:55;7.70;;;5.60;;
19617;SDS011;9956;51.006;13.670;2023-10-09T03:49:57;8.63;;;6.65;;
19617;SDS011;9956;51.006;13.670;2023-10-09T03:55:02;7.93;;;6.43;;
19617;SDS011;9956;51.006;13.670;2023-10-09T04:00:08;7.28;;;6.35;;
19617;SDS011;9956;51.006;13.670;2023-10-09T04:05:27;8.55;;;6.60;;
19617;SDS011;9956;51.006;13.670;2023-10-09T04:10:28;8.65;;;6.80;;
19617;SDS011;9956;51.006;13.670;2023-10-09T04:15:51;8.05;;;6.90;;
19617;SDS011;9956;51.006;13.670;2023-10-09T04:20:53;9.77;;;7.45;;
19617;SDS011;9956;51.006;13.670;2023-10-09T04:26:30;10.32;;;7.32;;
19617;SDS011;9956;51.006;13.670;2023-10-09T04:31:34;7.63;;;6.72;;
19617;SDS011;9956;51.006;13.670;2023-10-09T04:36:37;7.05;;;6.32;;
19617;SDS011;9956;51.006;13.670;2023-10-09T04:41:46;10.55;;;6.75;;
19617;SDS011;9956;51.006;13.670;2023-10-09T04:46:47;7.88;;;6.35;;
19617;SDS011;9956;51.006;13.670;2023-10-09T04:52:08;8.57;;;7.05;;
19617;SDS011;9956;51.006;13.670;2023-10-09T04:57:18;10.80;;;8.27;;
19617;SDS011;9956;51.006;13.670;2023-10-09T05:02:19;8.38;;;7.05;;
19617;SDS011;9956;51.006;13.670;2023-10-09T05:07:19;9.30;;;7.78;;
19617;SDS011;9956;51.006;13.670;2023-10-09T05:12:23;9.23;;;7.38;;
19617;SDS011;9956;51.006;13.670;2023-10-09T05:17:29;10.48;;;7.63;;
19617;SDS011;9956;51.006;13.670;2023-10-09T05:22:34;7.82;;;7.05;;
19617;SDS011;9956;51.006;13.670;2023-10-09T05:27:38;8.93;;;7.88;;
19617;SDS011;9956;51.006;13.670;2023-10-09T05:33:04;9.25;;;8.13;;
19617;SDS011;9956;51.006;13.670;2023-10-09T05:38:23;9.75;;;7.63;;
19617;SDS011;9956;51.006;13.670;2023-10-09T05:43:25;10.02;;;8.85;;
19617;SDS011;9956;51.006;13.670;2023-10-09T05:48:44;12.02;;;9.95;;
19617;SDS011;9956;51.006;13.670;2023-10-09T05:53:44;12.18;;;10.30;;
19617;SDS011;9956;51.006;13.670;2023-10-09T05:58:44;14.57;;;10.95;;
19617;SDS011;9956;51.006;13.670;2023-10-09T06:04:06;14.20;;;10.65;;
19617;SDS011;9956;51.006;13.670;2023-10-09T06:09:21;14.48;;;11.38;;
19617;SDS011;9956;51.006;13.670;2023-10-09T06:14:23;15.48;;;12.43;;
19617;SDS011;9956;51.006;13.670;2023-10-09T06:19:30;25.45;;;15.00;;
19617;SDS011;9956;51.006;13.670;2023-10-09T06:24:32;19.33;;;13.80;;
19617;SDS011;9956;51.006;13.670;2023-10-09T06:29:44;18.48;;;13.55;;
19617;SDS011;9956;51.006;13.670;2023-10-09T06:34:48;27.75;;;16.58;;
19617;SDS011;9956;51.006;13.670;2023-10-09T06:40:19;20.90;;;15.77;;
19617;SDS011;9956;51.006;13.670;2023-10-09T06:45:38;21.02;;;14.02;;
19617;SDS011;9956;51.006;13.670;2023-10-09T06:50:44;30.70;;;17.55;;
19617;SDS011;9956;51.006;13.670;2023-10-09T06:56:04;23.95;;;15.52;;
19617;SDS011;9956;51.006;13.670;2023-10-09T07:01:07;31.70;;;20.17;;
19617;SDS011;9956;51.006;13.670;2023-10-09T07:06:28;59.42;;;26.48;;
19617;SDS011;9956;51.006;13.670;2023-10-09T07:11:31;51.75;;;23.85;;
19617;SDS011;9956;51.006;13.670;2023-10-09T07:16:41;80.60;;;29.83;;
19617;SDS011;9956;51.006;13.670;2023-10-09T07:21:57;95.90;;;33.67;;
19617;SDS011;9956;51.006;13.670;2023-10-09T07:27:03;64.43;;;28.90;;
19617;SDS011;9956;51.006;13.670;2023-10-09T07:32:09;62.03;;;28.50;;
19617;SDS011;9956;51.006;13.670;2023-10-09T07:37:12;76.68;;;29.98;;
19617;SDS011;9956;51.006;13.670;2023-10-09T07:42:19;69.65;;;27.40;;
19617;SDS011;9956;51.006;13.670;2023-10-09T07:47:26;64.22;;;25.95;;
19617;SDS011;9956;51.006;13.670;2023-10-09T07:52:45;46.72;;;23.52;;
19617;SDS011;9956;51.006;13.670;2023-10-09T07:57:46;82.43;;;28.05;;
19617;SDS011;9956;51.006;13.670;2023-10-09T08:02:52;65.80;;;26.92;;
19617;SDS011;9956;51.006;13.670;2023-10-09T08:08:25;76.53;;;29.77;;
19617;SDS011;9956;51.006;13.670;2023-10-09T08:13:28;68.88;;;31.00;;
19617;SDS011;9956;51.006;13.670;2023-10-09T08:18:47;62.97;;;31.88;;
19617;SDS011;9956;51.006;13.670;2023-10-09T08:23:51;100.40;;;35.97;;
19617;SDS011;9956;51.006;13.670;2023-10-09T08:28:52;86.30;;;33.42;;
19617;SDS011;9956;51.006;13.670;2023-10-09T08:33:54;75.03;;;32.53;;
19617;SDS011;9956;51.006;13.670;2023-10-09T08:39:02;73.53;;;31.27;;
19617;SDS011;9956;51.006;13.670;2023-10-09T08:44:17;80.32;;;31.45;;
19617;SDS011;9956;51.006;13.670;2023-10-09T08:49:23;103.95;;;33.55;;
19617;SDS011;9956;51.006;13.670;2023-10-09T08:54:43;72.28;;;30.00;;
19617;SDS011;9956;51.006;13.670;2023-10-09T08:59:43;73.72;;;28.90;;
19617;SDS011;9956;51.006;13.670;2023-10-09T09:04:44;59.15;;;25.05;;
19617;SDS011;9956;51.006;13.670;2023-10-09T09:09:59;57.10;;;26.13;;
19617;SDS011;9956;51.006;13.670;2023-10-09T09:15:21;65.13;;;25.38;;
19617;SDS011;9956;51.006;13.670;2023-10-09T09:20:27;63.75;;;27.00;;
19617;SDS011;9956;51.006;13.670;2023-10-09T09:25:45;55.45;;;25.67;;
19617;SDS011;9956;51.006;13.670;2023-10-09T09:30:47;66.55;;;26.27;;
19617;SDS011;9956;51.006;13.670;2023-10-09T09:35:57;67.50;;;29.02;;
19617;SDS011;9956;51.006;13.670;2023-10-09T09:41:05;69.82;;;28.42;;
19617;SDS011;9956;51.006;13.670;2023-10-09T09:46:07;51.60;;;25.50;;
19617;SDS011;9956;51.006;13.670;2023-10-09T09:51:14;68.22;;;28.23;;
19617;SDS011;9956;51.006;13.670;2023-10-09T09:56:17;52.55;;;25.48;;
19617;SDS011;9956;51.006;13.670;2023-10-09T10:01:19;62.05;;;27.92;;
19617;SDS011;9956;51.006;13.670;2023-10-09T10:06:27;54.13;;;26.40;;
19617;SDS011;9956;51.006;13.670;2023-10-09T10:17:04;39.90;;;20.35;;
19617;SDS011;9956;51.006;13.670;2023-10-09T10:22:27;31.15;;;17.67;;
19617;SDS011;9956;51.006;13.670;2023-10-09T10:27:28;35.40;;;18.15;;
19617;SDS011;9956;51.006;13.670;2023-10-09T10:37:51;32.30;;;20.05;;
19617;SDS011;9956;51.006;13.670;2023-10-09T10:43:00;41.35;;;23.15;;
19617;SDS011;9956;51.006;13.670;2023-10-09T10:48:10;35.22;;;21.88;;
19617;SDS011;9956;51.006;13.670;2023-10-09T10:53:23;63.20;;;26.52;;
19617;SDS011;9956;51.006;13.670;2023-10-09T10:58:27;55.83;;;25.20;;
19617;SDS011;9956;51.006;13.670;2023-10-09T11:03:47;64.78;;;27.13;;
19617;SDS011;9956;51.006;13.670;2023-10-09T11:08:54;55.47;;;27.58;;
19617;SDS011;9956;51.006;13.670;2023-10-09T11:13:54;70.07;;;28.98;;
19617;SDS011;9956;51.006;13.670;2023-10-09T11:18:59;51.78;;;26.25;;
19617;SDS011;9956;51.006;13.670;2023-10-09T11:24:12;59.75;;;25.10;;
19617;SDS011;9956;51.006;13.670;2023-10-09T11:29:25;47.72;;;24.80;;
19617;SDS011;9956;51.006;13.670;2023-10-09T11:34:47;35.20;;;23.00;;
19617;SDS011;9956;51.006;13.670;2023-10-09T11:39:54;67.13;;;30.60;;
19617;SDS011;9956;51.006;13.670;2023-10-09T11:44:55;48.97;;;25.35;;
19617;SDS011;9956;51.006;13.670;2023-10-09T11:49:57;85.47;;;30.80;;
19617;SDS011;9956;51.006;13.670;2023-10-09T11:55:02;58.35;;;28.65;;
19617;SDS011;9956;51.006;13.670;2023-10-09T12:00:10;58.90;;;28.63;;
19617;SDS011;9956;51.006;13.670;2023-10-09T12:05:29;80.38;;;30.95;;
19617;SDS011;9956;51.006;13.670;2023-10-09T12:10:30;35.53;;;24.50;;
19617;SDS011;9956;51.006;13.670;2023-10-09T12:15:31;39.95;;;23.48;;
19617;SDS011;9956;51.006;13.670;2023-10-09T12:20:38;26.10;;;18.02;;
19617;SDS011;9956;51.006;13.670;2023-10-09T12:25:39;31.25;;;19.58;;
19617;SDS011;9956;51.006;13.670;2023-10-09T12:30:40;56.60;;;25.00;;
19617;SDS011;9956;51.006;13.670;2023-10-09T12:35:41;40.25;;;22.85;;
19617;SDS011;9956;51.006;13.670;2023-10-09T12:40:41;33.53;;;20.48;;
19617;SDS011;9956;51.006;13.670;2023-10-09T12:45:50;36.67;;;25.20;;
19617;SDS011;9956;51.006;13.670;2023-10-09T12:50:51;50.70;;;24.35;;
19617;SDS011;9956;51.006;13.670;2023-10-09T12:55:54;41.78;;;20.08;;
19617;SDS011;9956;51.006;13.670;2023-10-09T13:00:56;36.50;;;20.52;;
19617;SDS011;9956;51.006;13.670;2023-10-09T13:06:09;36.88;;;20.25;;
19617;SDS011;9956;51.006;13.670;2023-10-09T13:11:12;41.88;;;23.58;;
19617;SDS011;9956;51.006;13.670;2023-10-09T13:16:25;27.40;;;17.98;;
19617;SDS011;9956;51.006;13.670;2023-10-09T13:21:28;34.90;;;22.17;;
19617;SDS011;9956;51.006;13.670;2023-10-09T13:26:35;25.20;;;17.25;;
19617;SDS011;9956;51.006;13.670;2023-10-09T13:31:35;37.70;;;19.17;;
19617;SDS011;9956;51.006;13.670;2023-10-09T13:36:38;21.15;;;14.43;;
19617;SDS011;9956;51.006;13.670;2023-10-09T13:41:38;22.17;;;13.93;;
19617;SDS011;9956;51.006;13.670;2023-10-09T13:46:41;14.57;;;11.77;;
19617;SDS011;9956;51.006;13.670;2023-10-09T13:51:42;19.90;;;13.40;;
19617;SDS011;9956;51.006;13.670;2023-10-09T13:56:46;19.90;;;12.23;;
19617;SDS011;9956;51.006;13.670;2023-10-09T14:01:49;17.50;;;11.63;;
19617;SDS011;9956;51.006;13.670;2023-10-09T14:06:51;19.17;;;11.35;;
19617;SDS011;9956;51.006;13.670;2023-10-09T14:12:01;19.73;;;11.95;;
19617;SDS011;9956;51.006;13.670;2023-10-09T14:17:11;22.13;;;13.38;;
19617;SDS011;9956;51.006;13.670;2023-10-09T14:22:12;19.77;;;11.85;;
19617;SDS011;9956;51.006;13.670;2023-10-09T14:27:15;27.45;;;13.32;;
19617;SDS011;9956;51.006;13.670;2023-10-09T14:32:18;29.88;;;14.48;;
19617;SDS011;9956;51.006;13.670;2023-10-09T14:37:19;32.17;;;15.75;;
19617;SDS011;9956;51.006;13.670;2023-10-09T14:42:20;16.42;;;12.85;;
19617;SDS011;9956;51.006;13.670;2023-10-09T14:47:23;32.33;;;16.85;;
19617;SDS011;9956;51.006;13.670;2023-10-09T14:52:23;44.55;;;18.67;;
19617;SDS011;9956;51.006;13.670;2023-10-09T14:57:24;36.70;;;17.65;;
19617;SDS011;9956;51.006;13.670;2023-10-09T15:02:29;28.73;;;16.88;;
19617;SDS011;9956;51.006;13.670;2023-10-09T15:07:32;26.90;;;15.82;;
19617;SDS011;9956;51.006;13.670;2023-10-09T15:12:34;27.25;;;14.57;;
19617;SDS011;9956;51.006;13.670;2023-10-09T15:17:39;26.63;;;15.43;;
19617;SDS011;9956;51.006;13.670;2023-10-09T15:22:47;23.90;;;15.15;;
19617;SDS011;9956;51.006;13.670;2023-10-09T15:27:48;26.73;;;16.20;;
19617;SDS011;9956;51.006;13.670;2023-10-09T15:32:50;15.02;;;11.90;;
19617;SDS011;9956;51.006;13.670;2023-10-09T15:37:50;21.63;;;14.20;;
19617;SDS011;9956;51.006;13.670;2023-10-09T15:42:54;17.08;;;12.70;;
19617;SDS011;9956;51.006;13.670;2023-10-09T15:47:56;19.92;;;13.98;;
19617;SDS011;9956;51.006;13.670;2023-10-09T15:52:57;24.58;;;14.07;;
19617;SDS011;9956;51.006;13.670;2023-10-09T15:58:03;125.50;;;63.63;;
19617;SDS011;9956;51.006;13.670;2023-10-09T16:03:09;36.85;;;22.52;;
19617;SDS011;9956;51.006;13.670;2023-10-09T16:08:14;24.33;;;20.73;;
19617;SDS011;9956;51.006;13.670;2023-10-09T16:13:14;26.25;;;18.42;;
19617;SDS011;9956;51.006;13.670;2023-10-09T16:18:16;19.52;;;15.60;;
19617;SDS011;9956;51.006;13.670;2023-10-09T16:23:17;24.00;;;13.85;;
19617;SDS011;9956;51.006;13.670;2023-10-09T16:28:20;20.85;;;13.45;;
19617;SDS011;9956;51.006;13.670;2023-10-09T16:33:20;22.45;;;16.77;;
19617;SDS011;9956;51.006;13.670;2023-10-09T16:38:21;19.20;;;13.85;;
19617;SDS011;9956;51.006;13.670;2023-10-09T16:43:23;24.25;;;13.65;;
19617;SDS011;9956;51.006;13.670;2023-10-09T16:48:26;32.60;;;15.88;;
19617;SDS011;9956;51.006;13.670;2023-10-09T16:53:29;18.13;;;11.93;;
19617;SDS011;9956;51.006;13.670;2023-10-09T16:58:31;22.75;;;15.25;;
19617;SDS011;9956;51.006;13.670;2023-10-09T17:03:32;24.35;;;15.90;;
19617;SDS011;9956;51.006;13.670;2023-10-09T17:08:34;19.20;;;13.05;;
19617;SDS011;9956;51.006;13.670;2023-10-09T17:13:39;27.67;;;15.68;;
19617;SDS011;9956;51.006;13.670;2023-10-09T17:18:49;20.38;;;14.77;;
19617;SDS011;9956;51.006;13.670;2023-10-09T17:23:53;14.88;;;12.82;;
19617;SDS011;9956;51.006;13.670;2023-10-09T17:28:54;30.08;;;17.23;;
19617;SDS011;9956;51.006;13.670;2023-10-09T17:33:54;34.92;;;19.52;;
19617;SDS011;9956;51.006;13.670;2023-10-09T17:38:55;38.78;;;24.65;;
19617;SDS011;9956;51.006;13.670;2023-10-09T17:44:00;34.53;;;18.92;;
19617;SDS011;9956;51.006;13.670;2023-10-09T17:49:05;26.73;;;17.45;;
19617;SDS011;9956;51.006;13.670;2023-10-09T17:54:06;36.83;;;19.67;;
19617;SDS011;9956;51.006;13.670;2023-10-09T17:59:09;18.55;;;14.20;;
19617;SDS011;9956;51.006;13.670;2023-10-09T18:04:11;24.83;;;16.73;;
19617;SDS011;9956;51.006;13.670;2023-10-09T18:09:14;23.42;;;17.73;;
19617;SDS011;9956;51.006;13.670;2023-10-09T18:14:17;16.13;;;11.75;;
19617;SDS011;9956;51.006;13.670;2023-10-09T18:19:17;18.63;;;12.57;;
19617;SDS011;9956;51.006;13.670;2023-10-09T18:24:20;26.05;;;16.45;;
19617;SDS011;9956;51.006;13.670;2023-10-09T18:29:23;24.08;;;16.45;;
19617;SDS011;9956;51.006;13.670;2023-10-09T18:34:24;40.35;;;21.35;;
19617;SDS011;9956;51.006;13.670;2023-10-09T18:39:27;48.40;;;23.35;;
19617;SDS011;9956;51.006;13.670;2023-10-09T18:44:30;56.58;;;27.77;;
19617;SDS011;9956;51.006;13.670;2023-10-09T18:49:31;50.60;;;28.10;;
19617;SDS011;9956;51.006;13.670;2023-10-09T18:54:32;38.33;;;27.42;;
19617;SDS011;9956;51.006;13.670;2023-10-09T18:59:36;38.92;;;27.80;;
19617;SDS011;9956;51.006;13.670;2023-10-09T19:04:36;70.68;;;35.15;;
19617;SDS011;9956;51.006;13.670;2023-10-09T19:09:37;65.15;;;34.03;;
19617;SDS011;9956;51.006;13.670;2023-10-09T19:14:37;48.03;;;29.73;;
19617;SDS011;9956;51.006;13.670;2023-10-09T19:19:38;73.07;;;37.22;;
19617;SDS011;9956;51.006;13.670;2023-10-09T19:24:39;96.10;;;42.53;;
19617;SDS011;9956;51.006;13.670;2023-10-09T19:29:40;78.43;;;40.88;;
19617;SDS011;9956;51.006;13.670;2023-10-09T19:34:41;53.15;;;31.60;;
19617;SDS011;9956;51.006;13.670;2023-10-09T19:39:41;43.78;;;30.15;;
19617;SDS011;9956;51.006;13.670;2023-10-09T19:44:42;70.03;;;32.38;;
19617;SDS011;9956;51.006;13.670;2023-10-09T19:49:43;50.03;;;29.40;;
19617;SDS011;9956;51.006;13.670;2023-10-09T19:54:43;55.28;;;32.03;;
19617;SDS011;9956;51.006;13.670;2023-10-09T19:59:44;34.55;;;27.30;;
19617;SDS011;9956;51.006;13.670;2023-10-09T20:04:44;114.38;;;44.30;;
19617;SDS011;9956;51.006;13.670;2023-10-09T20:09:48;124.22;;;46.60;;
19617;SDS011;9956;51.006;13.670;2023-10-09T20:14:48;123.55;;;47.15;;
19617;SDS011;9956;51.006;13.670;2023-10-09T20:19:49;106.57;;;44.63;;
19617;SDS011;9956;51.006;13.670;2023-10-09T20:24:54;85.55;;;40.15;;
19617;SDS011;9956;51.006;13.670;2023-10-09T20:29:55;60.92;;;32.33;;
19617;SDS011;9956;51.006;13.670;2023-10-09T20:34:56;99.13;;;36.92;;
19617;SDS011;9956;51.006;13.670;2023-10-09T20:39:57;53.42;;;27.52;;
19617;SDS011;9956;51.006;13.670;2023-10-09T20:44:59;39.53;;;22.75;;
19617;SDS011;9956;51.006;13.670;2023-10-09T20:50:00;32.72;;;20.08;;
19617;SDS011;9956;51.006;13.670;2023-10-09T20:55:01;37.95;;;21.70;;
19617;SDS011;9956;51.006;13.670;2023-10-09T21:00:02;28.27;;;19.58;;
19617;SDS011;9956;51.006;13.670;2023-10-09T21:05:03;51.63;;;26.65;;
19617;SDS011;9956;51.006;13.670;2023-10-09T21:10:04;41.67;;;24.33;;
19617;SDS011;9956;51.006;13.670;2023-10-09T21:15:05;71.03;;;33.58;;
19617;SDS011;9956;51.006;13.670;2023-10-09T21:20:10;67.43;;;35.22;;
19617;SDS011;9956;51.006;13.670;2023-10-09T21:25:18;62.08;;;34.20;;
19617;SDS011;9956;51.006;13.670;2023-10-09T21:30:20;99.53;;;40.65;;
19617;SDS011;9956;51.006;13.670;2023-10-09T21:35:21;132.70;;;47.55;;
19617;SDS011;9956;51.006;13.670;2023-10-09T21:40:27;174.45;;;54.47;;
19617;SDS011;9956;51.006;13.670;2023-10-09T21:45:28;150.82;;;53.13;;
19617;SDS011;9956;51.006;13.670;2023-10-09T21:50:29;137.25;;;49.25;;
19617;SDS011;9956;51.006;13.670;2023-10-09T21:55:30;89.22;;;43.92;;
19617;SDS011;9956;51.006;13.670;2023-10-09T22:00:31;123.07;;;49.53;;
19617;SDS011;9956;51.006;13.670;2023-10-09T22:05:36;108.95;;;43.92;;
19617;SDS011;9956;51.006;13.670;2023-10-09T22:10:57;218.55;;;58.97;;
19617;SDS011;9956;51.006;13.670;2023-10-09T22:15:58;182.68;;;53.25;;
19617;SDS011;9956;51.006;13.670;2023-10-09T22:20:58;127.45;;;47.85;;
19617;SDS011;9956;51.006;13.670;2023-10-09T22:26:05;87.10;;;39.88;;
19617;SDS011;9956;51.006;13.670;2023-10-09T22:31:09;91.20;;;42.42;;
19617;SDS011;9956;51.006;13.670;2023-10-09T22:36:13;154.35;;;51.53;;
19617;SDS011;9956;51.006;13.670;2023-10-09T22:41:39;81.40;;;42.53;;
19617;SDS011;9956;51.006;13.670;2023-10-09T22:46:40;216.18;;;57.67;;
19617;SDS011;9956;51.006;13.670;2023-10-09T22:51:41;86.38;;;42.92;;
19617;SDS011;9956;51.006;13.670;2023-10-09T22:56:42;135.35;;;50.42;;
19617;SDS011;9956;51.006;13.670;2023-10-09T23:01:43;142.68;;;51.65;;
19617;SDS011;9956;51.006;13.670;2023-10-09T23:06:44;182.43;;;52.88;;
19617;SDS011;9956;51.006;13.670;2023-10-09T23:11:45;159.63;;;51.15;;
19617;SDS011;9956;51.006;13.670;2023-10-09T23:16:55;179.65;;;51.92;;
19617;SDS011;9956;51.006;13.670;2023-10-09T23:22:08;84.82;;;38.38;;
19617;SDS011;9956;51.006;13.670;2023-10-09T23:27:12;153.05;;;46.83;;
19617;SDS011;9956;51.006;13.670;2023-10-09T23:32:25;94.65;;;38.30;;
19617;SDS011;9956;51.006;13.670;2023-10-09T23:37:32;83.50;;;38.45;;
19617;SDS011;9956;51.006;13.670;2023-10-09T23:42:40;117.32;;;42.38;;
19617;SDS011;9956;51.006;13.670;2023-10-09T23:47:57;170.35;;;49.85;;
19617;SDS011;9956;51.006;13.670;2023-10-09T23:53:00;93.30;;;40.78;;
19617;SDS011;9956;51.006;13.670;2023-10-09T23:58:02;78.95;;;37.08;;
